sensor_id;sensor_type;location;lat;lon;timestamp;P1;durP1;ratioP1;P2;durP2;ratioP2
37451;SDS011;23314;51.114;6.900;2022-10-15T00:01:44;10.60;;;8.07;;
37451;SDS011;23314;51.114;6.900;2022-10-15T00:04:09;10.57;;;7.67;;
37451;SDS011;23314;51.114;6.900;2022-10-15T00:06:34;8.03;;;7.33;;
37451;SDS011;23314;51.114;6.900;2022-10-15T00:09:00;7.43;;;6.70;;
37451;SDS011;23314;51.114;6.900;2022-10-15T00:11:26;9.50;;;6.87;;
37451;SDS011;23314;51.114;6.900;2022-10-15T00:13:53;8.50;;;7.00;;
37451;SDS011;23314;51.114;6.900;2022-10-15T00:16:22;7.70;;;7.00;;
37451;SDS011;23314;51.114;6.900;2022-10-15T00:18:50;9.57;;;6.90;;
37451;SDS011;23314;51.114;6.900;2022-10-15T00:21:16;7.20;;;6.50;;
37451;SDS011;23314;51.114;6.900;2022-10-15T00:23:43;7.10;;;6.40;;
37451;SDS011;23314;51.114;6.900;2022-10-15T00:26:10;8.07;;;6.63;;
37451;SDS011;23314;51.114;6.900;2022-10-15T00:28:38;6.37;;;5.87;;
37451;SDS011;23314;51.114;6.900;2022-10-15T00:31:05;8.23;;;6.17;;
37451;SDS011;23314;51.114;6.900;2022-10-15T00:33:33;7.53;;;6.33;;
37451;SDS011;23314;51.114;6.900;2022-10-15T00:36:00;6.93;;;6.23;;
37451;SDS011;23314;51.114;6.900;2022-10-15T00:38:36;7.60;;;6.77;;
37451;SDS011;23314;51.114;6.900;2022-10-15T00:41:03;8.23;;;6.57;;
37451;SDS011;23314;51.114;6.900;2022-10-15T00:43:37;7.90;;;6.67;;
37451;SDS011;23314;51.114;6.900;2022-10-15T00:46:03;8.27;;;6.47;;
37451;SDS011;23314;51.114;6.900;2022-10-15T00:48:30;7.10;;;6.37;;
37451;SDS011;23314;51.114;6.900;2022-10-15T00:50:56;7.50;;;6.70;;
37451;SDS011;23314;51.114;6.900;2022-10-15T00:53:26;7.30;;;6.60;;
37451;SDS011;23314;51.114;6.900;2022-10-15T00:55:51;9.47;;;6.80;;
37451;SDS011;23314;51.114;6.900;2022-10-15T00:58:18;10.83;;;6.57;;
37451;SDS011;23314;51.114;6.900;2022-10-15T01:00:53;7.83;;;7.20;;
37451;SDS011;23314;51.114;6.900;2022-10-15T01:03:19;7.40;;;6.80;;
37451;SDS011;23314;51.114;6.900;2022-10-15T01:05:45;7.33;;;6.63;;
37451;SDS011;23314;51.114;6.900;2022-10-15T01:08:13;9.17;;;7.70;;
37451;SDS011;23314;51.114;6.900;2022-10-15T01:13:29;7.87;;;7.13;;
37451;SDS011;23314;51.114;6.900;2022-10-15T01:16:09;9.43;;;6.73;;
37451;SDS011;23314;51.114;6.900;2022-10-15T01:18:47;7.33;;;6.43;;
37451;SDS011;23314;51.114;6.900;2022-10-15T01:21:24;7.60;;;7.00;;
37451;SDS011;23314;51.114;6.900;2022-10-15T01:24:18;7.50;;;6.80;;
37451;SDS011;23314;51.114;6.900;2022-10-15T01:30:04;7.27;;;6.63;;
37451;SDS011;23314;51.114;6.900;2022-10-15T01:32:43;7.47;;;6.73;;
37451;SDS011;23314;51.114;6.900;2022-10-15T01:38:24;7.40;;;6.70;;
37451;SDS011;23314;51.114;6.900;2022-10-15T01:43:56;7.20;;;6.50;;
37451;SDS011;23314;51.114;6.900;2022-10-15T01:46:27;7.37;;;6.70;;
37451;SDS011;23314;51.114;6.900;2022-10-15T01:48:58;9.20;;;7.60;;
37451;SDS011;23314;51.114;6.900;2022-10-15T01:51:28;8.20;;;7.40;;
37451;SDS011;23314;51.114;6.900;2022-10-15T01:53:56;7.53;;;6.80;;
37451;SDS011;23314;51.114;6.900;2022-10-15T01:56:24;10.67;;;7.10;;
37451;SDS011;23314;51.114;6.900;2022-10-15T01:58:51;8.20;;;7.40;;
37451;SDS011;23314;51.114;6.900;2022-10-15T02:01:19;7.60;;;6.90;;
37451;SDS011;23314;51.114;6.900;2022-10-15T02:03:46;10.10;;;7.03;;
37451;SDS011;23314;51.114;6.900;2022-10-15T02:06:15;8.90;;;6.40;;
37451;SDS011;23314;51.114;6.900;2022-10-15T02:11:54;7.63;;;6.93;;
37451;SDS011;23314;51.114;6.900;2022-10-15T02:14:43;7.67;;;6.47;;
37451;SDS011;23314;51.114;6.900;2022-10-15T02:17:16;9.87;;;7.27;;
37451;SDS011;23314;51.114;6.900;2022-10-15T02:19:51;8.57;;;6.60;;
37451;SDS011;23314;51.114;6.900;2022-10-15T02:22:42;7.50;;;6.90;;
37451;SDS011;23314;51.114;6.900;2022-10-15T02:25:17;7.80;;;6.73;;
37451;SDS011;23314;51.114;6.900;2022-10-15T02:27:46;7.37;;;6.77;;
37451;SDS011;23314;51.114;6.900;2022-10-15T02:30:13;7.57;;;6.87;;
37451;SDS011;23314;51.114;6.900;2022-10-15T02:32:40;7.33;;;6.63;;
37451;SDS011;23314;51.114;6.900;2022-10-15T02:35:09;12.27;;;6.93;;
37451;SDS011;23314;51.114;6.900;2022-10-15T02:37:36;9.10;;;6.80;;
37451;SDS011;23314;51.114;6.900;2022-10-15T02:40:06;8.53;;;6.67;;
37451;SDS011;23314;51.114;6.900;2022-10-15T02:42:53;7.10;;;6.50;;
37451;SDS011;23314;51.114;6.900;2022-10-15T02:45:19;7.97;;;7.17;;
37451;SDS011;23314;51.114;6.900;2022-10-15T02:47:45;7.33;;;6.57;;
37451;SDS011;23314;51.114;6.900;2022-10-15T02:50:10;7.93;;;7.20;;
37451;SDS011;23314;51.114;6.900;2022-10-15T02:52:36;8.00;;;7.30;;
37451;SDS011;23314;51.114;6.900;2022-10-15T02:55:01;11.17;;;7.73;;
37451;SDS011;23314;51.114;6.900;2022-10-15T02:57:27;8.77;;;6.87;;
37451;SDS011;23314;51.114;6.900;2022-10-15T02:59:52;8.03;;;7.40;;
37451;SDS011;23314;51.114;6.900;2022-10-15T03:02:17;7.87;;;7.13;;
37451;SDS011;23314;51.114;6.900;2022-10-15T03:04:43;8.73;;;6.60;;
37451;SDS011;23314;51.114;6.900;2022-10-15T03:07:08;8.30;;;6.97;;
37451;SDS011;23314;51.114;6.900;2022-10-15T03:09:33;8.03;;;7.03;;
37451;SDS011;23314;51.114;6.900;2022-10-15T03:11:59;10.27;;;8.10;;
37451;SDS011;23314;51.114;6.900;2022-10-15T03:14:24;8.70;;;7.80;;
37451;SDS011;23314;51.114;6.900;2022-10-15T03:16:50;8.53;;;7.73;;
37451;SDS011;23314;51.114;6.900;2022-10-15T03:19:15;10.30;;;7.83;;
37451;SDS011;23314;51.114;6.900;2022-10-15T03:21:41;8.17;;;7.40;;
37451;SDS011;23314;51.114;6.900;2022-10-15T03:24:06;8.53;;;7.63;;
37451;SDS011;23314;51.114;6.900;2022-10-15T03:26:31;10.07;;;6.90;;
37451;SDS011;23314;51.114;6.900;2022-10-15T03:28:57;8.30;;;7.50;;
37451;SDS011;23314;51.114;6.900;2022-10-15T03:31:22;11.80;;;7.90;;
37451;SDS011;23314;51.114;6.900;2022-10-15T03:33:48;11.33;;;7.70;;
37451;SDS011;23314;51.114;6.900;2022-10-15T03:36:13;8.50;;;7.53;;
37451;SDS011;23314;51.114;6.900;2022-10-15T03:38:39;8.37;;;7.53;;
37451;SDS011;23314;51.114;6.900;2022-10-15T03:41:06;7.43;;;6.73;;
37451;SDS011;23314;51.114;6.900;2022-10-15T03:43:32;8.00;;;7.23;;
37451;SDS011;23314;51.114;6.900;2022-10-15T03:46:00;13.50;;;7.40;;
37451;SDS011;23314;51.114;6.900;2022-10-15T03:48:26;7.70;;;7.00;;
37451;SDS011;23314;51.114;6.900;2022-10-15T03:50:51;8.10;;;6.80;;
37451;SDS011;23314;51.114;6.900;2022-10-15T03:53:17;9.00;;;6.97;;
37451;SDS011;23314;51.114;6.900;2022-10-15T03:55:42;8.93;;;6.83;;
37451;SDS011;23314;51.114;6.900;2022-10-15T03:58:07;8.57;;;7.40;;
37451;SDS011;23314;51.114;6.900;2022-10-15T04:00:33;7.97;;;7.17;;
37451;SDS011;23314;51.114;6.900;2022-10-15T04:02:58;7.97;;;7.17;;
37451;SDS011;23314;51.114;6.900;2022-10-15T04:05:24;7.83;;;7.03;;
37451;SDS011;23314;51.114;6.900;2022-10-15T04:07:49;9.33;;;7.27;;
37451;SDS011;23314;51.114;6.900;2022-10-15T04:10:15;8.40;;;7.60;;
37451;SDS011;23314;51.114;6.900;2022-10-15T04:12:40;8.70;;;7.70;;
37451;SDS011;23314;51.114;6.900;2022-10-15T04:15:06;10.17;;;8.20;;
37451;SDS011;23314;51.114;6.900;2022-10-15T04:17:31;8.57;;;7.77;;
37451;SDS011;23314;51.114;6.900;2022-10-15T04:19:57;10.73;;;8.73;;
37451;SDS011;23314;51.114;6.900;2022-10-15T04:22:22;8.97;;;8.17;;
37451;SDS011;23314;51.114;6.900;2022-10-15T04:24:48;11.83;;;8.77;;
37451;SDS011;23314;51.114;6.900;2022-10-15T04:27:14;8.90;;;7.97;;
37451;SDS011;23314;51.114;6.900;2022-10-15T04:29:42;10.50;;;8.77;;
37451;SDS011;23314;51.114;6.900;2022-10-15T04:32:09;9.60;;;8.50;;
37451;SDS011;23314;51.114;6.900;2022-10-15T04:34:38;9.90;;;8.90;;
37451;SDS011;23314;51.114;6.900;2022-10-15T04:37:10;9.70;;;8.70;;
37451;SDS011;23314;51.114;6.900;2022-10-15T04:39:36;13.93;;;9.27;;
37451;SDS011;23314;51.114;6.900;2022-10-15T04:42:01;11.50;;;9.60;;
37451;SDS011;23314;51.114;6.900;2022-10-15T04:44:27;11.57;;;10.13;;
37451;SDS011;23314;51.114;6.900;2022-10-15T04:46:52;11.97;;;10.50;;
37451;SDS011;23314;51.114;6.900;2022-10-15T04:49:18;12.30;;;10.67;;
37451;SDS011;23314;51.114;6.900;2022-10-15T04:51:43;13.83;;;10.50;;
37451;SDS011;23314;51.114;6.900;2022-10-15T04:54:09;13.33;;;9.90;;
37451;SDS011;23314;51.114;6.900;2022-10-15T04:56:34;14.07;;;10.97;;
37451;SDS011;23314;51.114;6.900;2022-10-15T04:59:00;11.80;;;10.20;;
37451;SDS011;23314;51.114;6.900;2022-10-15T05:01:25;14.63;;;10.50;;
37451;SDS011;23314;51.114;6.900;2022-10-15T05:03:51;11.97;;;10.57;;
37451;SDS011;23314;51.114;6.900;2022-10-15T05:06:17;13.07;;;10.60;;
37451;SDS011;23314;51.114;6.900;2022-10-15T05:08:44;12.00;;;10.80;;
37451;SDS011;23314;51.114;6.900;2022-10-15T05:13:38;12.73;;;11.43;;
37451;SDS011;23314;51.114;6.900;2022-10-15T05:16:10;14.27;;;11.37;;
37451;SDS011;23314;51.114;6.900;2022-10-15T05:18:36;14.93;;;11.70;;
37451;SDS011;23314;51.114;6.900;2022-10-15T05:21:03;13.47;;;12.07;;
37451;SDS011;23314;51.114;6.900;2022-10-15T05:23:28;15.17;;;11.90;;
37451;SDS011;23314;51.114;6.900;2022-10-15T05:25:54;16.70;;;13.60;;
37451;SDS011;23314;51.114;6.900;2022-10-15T05:28:19;14.17;;;12.53;;
37451;SDS011;23314;51.114;6.900;2022-10-15T05:30:44;15.93;;;12.13;;
37451;SDS011;23314;51.114;6.900;2022-10-15T05:33:10;17.10;;;12.53;;
37451;SDS011;23314;51.114;6.900;2022-10-15T05:35:36;15.00;;;11.87;;
37451;SDS011;23314;51.114;6.900;2022-10-15T05:38:01;14.87;;;11.90;;
37451;SDS011;23314;51.114;6.900;2022-10-15T05:40:28;12.70;;;11.30;;
37451;SDS011;23314;51.114;6.900;2022-10-15T05:42:54;16.40;;;12.03;;
37451;SDS011;23314;51.114;6.900;2022-10-15T05:45:19;14.23;;;11.60;;
37451;SDS011;23314;51.114;6.900;2022-10-15T05:47:45;12.93;;;10.97;;
37451;SDS011;23314;51.114;6.900;2022-10-15T05:50:10;18.70;;;11.80;;
37451;SDS011;23314;51.114;6.900;2022-10-15T05:52:35;11.77;;;10.63;;
37451;SDS011;23314;51.114;6.900;2022-10-15T05:55:01;11.93;;;10.73;;
37451;SDS011;23314;51.114;6.900;2022-10-15T05:57:29;15.27;;;9.97;;
37451;SDS011;23314;51.114;6.900;2022-10-15T05:59:54;15.10;;;10.43;;
37451;SDS011;23314;51.114;6.900;2022-10-15T06:02:19;14.70;;;11.33;;
37451;SDS011;23314;51.114;6.900;2022-10-15T06:04:46;12.37;;;11.07;;
37451;SDS011;23314;51.114;6.900;2022-10-15T06:07:12;16.40;;;10.80;;
37451;SDS011;23314;51.114;6.900;2022-10-15T06:09:37;11.60;;;10.33;;
37451;SDS011;23314;51.114;6.900;2022-10-15T06:12:02;13.23;;;11.17;;
37451;SDS011;23314;51.114;6.900;2022-10-15T06:14:28;12.70;;;10.60;;
37451;SDS011;23314;51.114;6.900;2022-10-15T06:16:54;12.47;;;11.13;;
37451;SDS011;23314;51.114;6.900;2022-10-15T06:19:19;15.30;;;11.00;;
37451;SDS011;23314;51.114;6.900;2022-10-15T06:21:45;15.23;;;11.10;;
37451;SDS011;23314;51.114;6.900;2022-10-15T06:24:10;12.27;;;10.93;;
37451;SDS011;23314;51.114;6.900;2022-10-15T06:26:36;19.30;;;12.73;;
37451;SDS011;23314;51.114;6.900;2022-10-15T06:29:01;17.33;;;12.20;;
37451;SDS011;23314;51.114;6.900;2022-10-15T06:31:26;12.03;;;10.83;;
37451;SDS011;23314;51.114;6.900;2022-10-15T06:33:52;12.47;;;10.97;;
37451;SDS011;23314;51.114;6.900;2022-10-15T06:36:17;13.23;;;11.30;;
37451;SDS011;23314;51.114;6.900;2022-10-15T06:38:44;15.47;;;12.20;;
37451;SDS011;23314;51.114;6.900;2022-10-15T06:41:10;13.60;;;12.20;;
37451;SDS011;23314;51.114;6.900;2022-10-15T06:43:36;14.83;;;12.43;;
37451;SDS011;23314;51.114;6.900;2022-10-15T06:46:02;15.83;;;12.67;;
37451;SDS011;23314;51.114;6.900;2022-10-15T06:48:29;17.83;;;13.90;;
37451;SDS011;23314;51.114;6.900;2022-10-15T06:50:56;16.57;;;13.87;;
37451;SDS011;23314;51.114;6.900;2022-10-15T06:53:23;16.97;;;14.23;;
37451;SDS011;23314;51.114;6.900;2022-10-15T06:55:48;17.47;;;15.57;;
37451;SDS011;23314;51.114;6.900;2022-10-15T06:58:14;16.83;;;14.83;;
37451;SDS011;23314;51.114;6.900;2022-10-15T07:00:39;17.57;;;14.50;;
37451;SDS011;23314;51.114;6.900;2022-10-15T07:03:05;16.17;;;14.47;;
37451;SDS011;23314;51.114;6.900;2022-10-15T07:05:31;15.53;;;13.90;;
37451;SDS011;23314;51.114;6.900;2022-10-15T07:07:57;15.97;;;14.37;;
37451;SDS011;23314;51.114;6.900;2022-10-15T07:10:24;16.83;;;14.77;;
37451;SDS011;23314;51.114;6.900;2022-10-15T07:12:50;15.90;;;14.30;;
37451;SDS011;23314;51.114;6.900;2022-10-15T07:15:16;20.33;;;17.17;;
37451;SDS011;23314;51.114;6.900;2022-10-15T07:17:45;22.03;;;16.57;;
37451;SDS011;23314;51.114;6.900;2022-10-15T07:20:12;22.47;;;16.90;;
37451;SDS011;23314;51.114;6.900;2022-10-15T07:22:38;23.53;;;17.10;;
37451;SDS011;23314;51.114;6.900;2022-10-15T07:25:03;24.03;;;15.23;;
37451;SDS011;23314;51.114;6.900;2022-10-15T07:27:29;20.23;;;15.17;;
37451;SDS011;23314;51.114;6.900;2022-10-15T07:29:55;18.67;;;14.53;;
37451;SDS011;23314;51.114;6.900;2022-10-15T07:32:21;17.30;;;13.67;;
37451;SDS011;23314;51.114;6.900;2022-10-15T07:34:47;16.93;;;13.30;;
37451;SDS011;23314;51.114;6.900;2022-10-15T07:37:12;13.90;;;12.43;;
37451;SDS011;23314;51.114;6.900;2022-10-15T07:39:38;14.23;;;11.63;;
37451;SDS011;23314;51.114;6.900;2022-10-15T07:42:03;14.90;;;12.30;;
37451;SDS011;23314;51.114;6.900;2022-10-15T07:44:29;11.27;;;10.03;;
37451;SDS011;23314;51.114;6.900;2022-10-15T07:46:54;10.87;;;9.07;;
37451;SDS011;23314;51.114;6.900;2022-10-15T07:49:20;10.00;;;9.10;;
37451;SDS011;23314;51.114;6.900;2022-10-15T07:51:45;10.87;;;8.83;;
37451;SDS011;23314;51.114;6.900;2022-10-15T07:54:10;10.23;;;8.30;;
37451;SDS011;23314;51.114;6.900;2022-10-15T07:56:36;12.73;;;7.80;;
37451;SDS011;23314;51.114;6.900;2022-10-15T07:59:02;8.30;;;7.50;;
37451;SDS011;23314;51.114;6.900;2022-10-15T08:01:27;8.83;;;6.97;;
37451;SDS011;23314;51.114;6.900;2022-10-15T08:03:53;9.70;;;6.70;;
37451;SDS011;23314;51.114;6.900;2022-10-15T08:06:18;7.13;;;6.43;;
37451;SDS011;23314;51.114;6.900;2022-10-15T08:08:44;7.27;;;6.03;;
37451;SDS011;23314;51.114;6.900;2022-10-15T08:11:10;9.87;;;6.03;;
37451;SDS011;23314;51.114;6.900;2022-10-15T08:13:37;9.23;;;6.40;;
37451;SDS011;23314;51.114;6.900;2022-10-15T08:16:10;12.87;;;6.83;;
37451;SDS011;23314;51.114;6.900;2022-10-15T08:18:37;6.43;;;5.83;;
37451;SDS011;23314;51.114;6.900;2022-10-15T08:21:03;6.83;;;5.10;;
37451;SDS011;23314;51.114;6.900;2022-10-15T08:23:30;5.80;;;4.80;;
37451;SDS011;23314;51.114;6.900;2022-10-15T08:25:58;5.93;;;4.70;;
37451;SDS011;23314;51.114;6.900;2022-10-15T08:28:25;6.70;;;4.87;;
37451;SDS011;23314;51.114;6.900;2022-10-15T08:30:51;4.87;;;4.47;;
37451;SDS011;23314;51.114;6.900;2022-10-15T08:33:17;8.23;;;4.03;;
37451;SDS011;23314;51.114;6.900;2022-10-15T08:35:42;4.57;;;3.83;;
37451;SDS011;23314;51.114;6.900;2022-10-15T08:38:17;7.73;;;4.30;;
37451;SDS011;23314;51.114;6.900;2022-10-15T08:40:46;4.97;;;4.00;;
37451;SDS011;23314;51.114;6.900;2022-10-15T08:43:52;6.23;;;4.17;;
37451;SDS011;23314;51.114;6.900;2022-10-15T08:49:02;7.10;;;4.40;;
37451;SDS011;23314;51.114;6.900;2022-10-15T08:51:39;9.00;;;3.90;;
37451;SDS011;23314;51.114;6.900;2022-10-15T08:54:18;5.07;;;3.73;;
37451;SDS011;23314;51.114;6.900;2022-10-15T08:56:44;10.03;;;3.70;;
37451;SDS011;23314;51.114;6.900;2022-10-15T09:01:58;4.43;;;2.63;;
37451;SDS011;23314;51.114;6.900;2022-10-15T09:07:32;2.73;;;2.50;;
37451;SDS011;23314;51.114;6.900;2022-10-15T09:12:55;2.10;;;1.95;;
37451;SDS011;23314;51.114;6.900;2022-10-15T09:15:25;2.07;;;1.97;;
37451;SDS011;23314;51.114;6.900;2022-10-15T09:17:54;6.95;;;2.10;;
37451;SDS011;23314;51.114;6.900;2022-10-15T09:20:33;3.17;;;2.00;;
37451;SDS011;23314;51.114;6.900;2022-10-15T09:23:00;2.00;;;1.90;;
37451;SDS011;23314;51.114;6.900;2022-10-15T09:25:28;2.05;;;1.70;;
37451;SDS011;23314;51.114;6.900;2022-10-15T09:27:58;2.78;;;1.88;;
37451;SDS011;23314;51.114;6.900;2022-10-15T09:33:02;2.42;;;1.35;;
37451;SDS011;23314;51.114;6.900;2022-10-15T09:35:36;1.55;;;1.45;;
37451;SDS011;23314;51.114;6.900;2022-10-15T09:41:10;3.03;;;1.52;;
37451;SDS011;23314;51.114;6.900;2022-10-15T09:43:45;2.00;;;1.20;;
37451;SDS011;23314;51.114;6.900;2022-10-15T09:46:13;1.52;;;1.42;;
37451;SDS011;23314;51.114;6.900;2022-10-15T09:48:39;2.35;;;1.67;;
37451;SDS011;23314;51.114;6.900;2022-10-15T09:51:20;2.78;;;1.50;;
37451;SDS011;23314;51.114;6.900;2022-10-15T09:56:53;4.80;;;1.30;;
37451;SDS011;23314;51.114;6.900;2022-10-15T09:59:20;2.60;;;1.30;;
37451;SDS011;23314;51.114;6.900;2022-10-15T10:04:24;3.13;;;1.00;;
37451;SDS011;23314;51.114;6.900;2022-10-15T10:06:55;1.02;;;0.90;;
37451;SDS011;23314;51.114;6.900;2022-10-15T10:09:33;2.65;;;0.95;;
37451;SDS011;23314;51.114;6.900;2022-10-15T10:12:03;0.98;;;0.98;;
37451;SDS011;23314;51.114;6.900;2022-10-15T10:14:32;1.45;;;1.10;;
37451;SDS011;23314;51.114;6.900;2022-10-15T10:17:07;2.15;;;1.20;;
37451;SDS011;23314;51.114;6.900;2022-10-15T10:19:41;0.98;;;0.75;;
37451;SDS011;23314;51.114;6.900;2022-10-15T10:22:11;1.33;;;0.90;;
37451;SDS011;23314;51.114;6.900;2022-10-15T10:24:37;0.90;;;0.90;;
37451;SDS011;23314;51.114;6.900;2022-10-15T10:27:03;0.93;;;0.93;;
37451;SDS011;23314;51.114;6.900;2022-10-15T10:29:38;1.30;;;1.30;;
37451;SDS011;23314;51.114;6.900;2022-10-15T10:32:11;1.65;;;1.00;;
37451;SDS011;23314;51.114;6.900;2022-10-15T10:34:43;0.80;;;0.80;;
37451;SDS011;23314;51.114;6.900;2022-10-15T10:37:08;0.88;;;0.85;;
37451;SDS011;23314;51.114;6.900;2022-10-15T10:39:35;1.75;;;0.90;;
37451;SDS011;23314;51.114;6.900;2022-10-15T10:42:22;1.52;;;1.00;;
37451;SDS011;23314;51.114;6.900;2022-10-15T10:44:48;2.03;;;0.90;;
37451;SDS011;23314;51.114;6.900;2022-10-15T10:47:17;2.22;;;1.10;;
37451;SDS011;23314;51.114;6.900;2022-10-15T10:49:43;1.10;;;1.10;;
37451;SDS011;23314;51.114;6.900;2022-10-15T10:54:52;2.17;;;1.10;;
37451;SDS011;23314;51.114;6.900;2022-10-15T10:57:26;1.35;;;1.25;;
37451;SDS011;23314;51.114;6.900;2022-10-15T11:00:13;1.60;;;1.30;;
37451;SDS011;23314;51.114;6.900;2022-10-15T11:02:42;1.30;;;1.20;;
37451;SDS011;23314;51.114;6.900;2022-10-15T11:05:08;1.40;;;1.30;;
37451;SDS011;23314;51.114;6.900;2022-10-15T11:07:38;2.30;;;1.20;;
37451;SDS011;23314;51.114;6.900;2022-10-15T11:10:18;2.05;;;1.20;;
37451;SDS011;23314;51.114;6.900;2022-10-15T11:12:58;1.55;;;1.20;;
37451;SDS011;23314;51.114;6.900;2022-10-15T11:15:54;1.52;;;1.30;;
37451;SDS011;23314;51.114;6.900;2022-10-15T11:21:23;1.73;;;1.40;;
37451;SDS011;23314;51.114;6.900;2022-10-15T11:30:03;1.08;;;0.98;;
37451;SDS011;23314;51.114;6.900;2022-10-15T11:32:45;4.15;;;1.02;;
37451;SDS011;23314;51.114;6.900;2022-10-15T11:35:35;1.17;;;1.00;;
37451;SDS011;23314;51.114;6.900;2022-10-15T11:49:47;3.13;;;0.73;;
37451;SDS011;23314;51.114;6.900;2022-10-15T11:52:20;1.02;;;0.82;;
37451;SDS011;23314;51.114;6.900;2022-10-15T11:57:21;3.70;;;1.00;;
37451;SDS011;23314;51.114;6.900;2022-10-15T11:59:55;1.15;;;0.75;;
37451;SDS011;23314;51.114;6.900;2022-10-15T12:02:30;0.82;;;0.80;;
37451;SDS011;23314;51.114;6.900;2022-10-15T12:04:59;1.00;;;0.63;;
37451;SDS011;23314;51.114;6.900;2022-10-15T12:07:44;2.13;;;0.80;;
37451;SDS011;23314;51.114;6.900;2022-10-15T12:12:42;1.95;;;0.90;;
37451;SDS011;23314;51.114;6.900;2022-10-15T12:20:41;1.25;;;0.70;;
37451;SDS011;23314;51.114;6.900;2022-10-15T12:23:17;2.15;;;0.70;;
37451;SDS011;23314;51.114;6.900;2022-10-15T12:25:46;1.65;;;0.82;;
37451;SDS011;23314;51.114;6.900;2022-10-15T12:28:25;0.60;;;0.60;;
37451;SDS011;23314;51.114;6.900;2022-10-15T12:31:04;0.40;;;0.40;;
37451;SDS011;23314;51.114;6.900;2022-10-15T12:33:34;0.50;;;0.47;;
37451;SDS011;23314;51.114;6.900;2022-10-15T12:36:20;0.50;;;0.50;;
37451;SDS011;23314;51.114;6.900;2022-10-15T12:38:57;1.65;;;0.80;;
37451;SDS011;23314;51.114;6.900;2022-10-15T12:41:40;1.10;;;0.50;;
37451;SDS011;23314;51.114;6.900;2022-10-15T12:44:14;1.90;;;0.73;;
37451;SDS011;23314;51.114;6.900;2022-10-15T12:46:44;1.17;;;0.77;;
37451;SDS011;23314;51.114;6.900;2022-10-15T12:51:54;0.43;;;0.43;;
37451;SDS011;23314;51.114;6.900;2022-10-15T12:54:37;0.45;;;0.40;;
37451;SDS011;23314;51.114;6.900;2022-10-15T12:59:55;0.40;;;0.40;;
37451;SDS011;23314;51.114;6.900;2022-10-15T13:05:05;0.82;;;0.60;;
37451;SDS011;23314;51.114;6.900;2022-10-15T13:07:33;1.00;;;0.90;;
37451;SDS011;23314;51.114;6.900;2022-10-15T13:10:03;1.15;;;0.73;;
37451;SDS011;23314;51.114;6.900;2022-10-15T13:12:29;0.60;;;0.60;;
37451;SDS011;23314;51.114;6.900;2022-10-15T13:14:56;0.70;;;0.70;;
37451;SDS011;23314;51.114;6.900;2022-10-15T13:17:27;0.68;;;0.68;;
37451;SDS011;23314;51.114;6.900;2022-10-15T13:19:58;1.65;;;0.88;;
37451;SDS011;23314;51.114;6.900;2022-10-15T13:22:29;0.60;;;0.60;;
37451;SDS011;23314;51.114;6.900;2022-10-15T13:24:56;0.75;;;0.70;;
37451;SDS011;23314;51.114;6.900;2022-10-15T13:27:29;0.60;;;0.60;;
37451;SDS011;23314;51.114;6.900;2022-10-15T13:30:01;0.70;;;0.70;;
37451;SDS011;23314;51.114;6.900;2022-10-15T13:32:50;0.77;;;0.77;;
37451;SDS011;23314;51.114;6.900;2022-10-15T13:35:18;1.02;;;0.70;;
37451;SDS011;23314;51.114;6.900;2022-10-15T13:37:46;0.70;;;0.70;;
37451;SDS011;23314;51.114;6.900;2022-10-15T13:40:25;0.70;;;0.70;;
37451;SDS011;23314;51.114;6.900;2022-10-15T13:45:25;1.55;;;0.75;;
37451;SDS011;23314;51.114;6.900;2022-10-15T13:47:51;0.80;;;0.70;;
37451;SDS011;23314;51.114;6.900;2022-10-15T13:53:01;1.90;;;0.75;;
37451;SDS011;23314;51.114;6.900;2022-10-15T13:55:49;0.55;;;0.55;;
37451;SDS011;23314;51.114;6.900;2022-10-15T13:58:18;0.60;;;0.60;;
37451;SDS011;23314;51.114;6.900;2022-10-15T14:00:54;0.40;;;0.40;;
37451;SDS011;23314;51.114;6.900;2022-10-15T14:03:26;0.77;;;0.52;;
37451;SDS011;23314;51.114;6.900;2022-10-15T14:05:54;0.80;;;0.80;;
37451;SDS011;23314;51.114;6.900;2022-10-15T14:10:52;0.50;;;0.43;;
37451;SDS011;23314;51.114;6.900;2022-10-15T14:13:20;0.50;;;0.50;;
37451;SDS011;23314;51.114;6.900;2022-10-15T14:18:32;0.57;;;0.57;;
37451;SDS011;23314;51.114;6.900;2022-10-15T14:21:02;0.50;;;0.50;;
37451;SDS011;23314;51.114;6.900;2022-10-15T14:23:35;1.45;;;0.73;;
37451;SDS011;23314;51.114;6.900;2022-10-15T14:26:01;0.98;;;0.63;;
37451;SDS011;23314;51.114;6.900;2022-10-15T14:28:28;1.25;;;0.60;;
37451;SDS011;23314;51.114;6.900;2022-10-15T14:30:55;0.85;;;0.85;;
37451;SDS011;23314;51.114;6.900;2022-10-15T14:36:02;0.93;;;0.90;;
37451;SDS011;23314;51.114;6.900;2022-10-15T14:38:29;1.02;;;0.90;;
37451;SDS011;23314;51.114;6.900;2022-10-15T14:41:02;3.88;;;1.20;;
37451;SDS011;23314;51.114;6.900;2022-10-15T14:43:47;1.20;;;1.20;;
37451;SDS011;23314;51.114;6.900;2022-10-15T14:46:24;2.80;;;1.10;;
37451;SDS011;23314;51.114;6.900;2022-10-15T14:48:49;1.10;;;1.10;;
37451;SDS011;23314;51.114;6.900;2022-10-15T14:51:23;1.27;;;0.80;;
37451;SDS011;23314;51.114;6.900;2022-10-15T14:53:49;0.80;;;0.80;;
37451;SDS011;23314;51.114;6.900;2022-10-15T14:56:18;0.90;;;0.85;;
37451;SDS011;23314;51.114;6.900;2022-10-15T14:58:49;0.82;;;0.82;;
37451;SDS011;23314;51.114;6.900;2022-10-15T15:01:18;0.95;;;0.95;;
37451;SDS011;23314;51.114;6.900;2022-10-15T15:03:46;1.08;;;1.00;;
37451;SDS011;23314;51.114;6.900;2022-10-15T15:06:13;0.80;;;0.80;;
37451;SDS011;23314;51.114;6.900;2022-10-15T15:08:38;0.70;;;0.70;;
37451;SDS011;23314;51.114;6.900;2022-10-15T15:11:04;0.75;;;0.75;;
37451;SDS011;23314;51.114;6.900;2022-10-15T15:13:36;3.88;;;0.80;;
37451;SDS011;23314;51.114;6.900;2022-10-15T15:16:03;1.17;;;0.70;;
37451;SDS011;23314;51.114;6.900;2022-10-15T15:18:29;0.90;;;0.90;;
37451;SDS011;23314;51.114;6.900;2022-10-15T15:20:54;0.90;;;0.90;;
37451;SDS011;23314;51.114;6.900;2022-10-15T15:23:24;0.90;;;0.90;;
37451;SDS011;23314;51.114;6.900;2022-10-15T15:25:51;0.70;;;0.70;;
37451;SDS011;23314;51.114;6.900;2022-10-15T15:28:19;2.35;;;1.10;;
37451;SDS011;23314;51.114;6.900;2022-10-15T15:30:45;3.50;;;1.00;;
37451;SDS011;23314;51.114;6.900;2022-10-15T15:33:15;1.13;;;1.00;;
37451;SDS011;23314;51.114;6.900;2022-10-15T15:35:45;2.08;;;1.00;;
37451;SDS011;23314;51.114;6.900;2022-10-15T15:38:17;1.92;;;1.10;;
37451;SDS011;23314;51.114;6.900;2022-10-15T15:40:43;2.67;;;1.10;;
37451;SDS011;23314;51.114;6.900;2022-10-15T15:43:11;0.95;;;0.93;;
37451;SDS011;23314;51.114;6.900;2022-10-15T15:45:38;1.52;;;1.10;;
37451;SDS011;23314;51.114;6.900;2022-10-15T15:48:04;3.38;;;1.20;;
37451;SDS011;23314;51.114;6.900;2022-10-15T15:50:29;2.92;;;1.15;;
37451;SDS011;23314;51.114;6.900;2022-10-15T15:52:55;3.83;;;2.10;;
37451;SDS011;23314;51.114;6.900;2022-10-15T15:55:20;8.48;;;5.63;;
37451;SDS011;23314;51.114;6.900;2022-10-15T15:57:45;1.38;;;1.20;;
37451;SDS011;23314;51.114;6.900;2022-10-15T16:00:11;1.60;;;1.50;;
37451;SDS011;23314;51.114;6.900;2022-10-15T16:02:37;3.10;;;1.80;;
37451;SDS011;23314;51.114;6.900;2022-10-15T16:05:03;3.45;;;2.53;;
37451;SDS011;23314;51.114;6.900;2022-10-15T16:07:30;3.20;;;3.03;;
37451;SDS011;23314;51.114;6.900;2022-10-15T16:09:55;76.35;;;63.08;;
37451;SDS011;23314;51.114;6.900;2022-10-15T16:12:21;14.18;;;11.00;;
37451;SDS011;23314;51.114;6.900;2022-10-15T16:14:46;2.95;;;1.67;;
37451;SDS011;23314;51.114;6.900;2022-10-15T16:17:11;2.10;;;1.70;;
37451;SDS011;23314;51.114;6.900;2022-10-15T16:19:37;3.63;;;1.70;;
37451;SDS011;23314;51.114;6.900;2022-10-15T16:22:02;2.00;;;1.90;;
37451;SDS011;23314;51.114;6.900;2022-10-15T16:24:28;2.75;;;2.45;;
37451;SDS011;23314;51.114;6.900;2022-10-15T16:26:54;2.33;;;2.10;;